Time;durP1;ratioP1;P1;durP2;ratioP2;P2;SDS_P1;SDS_P2;PMS_P1;PMS_P2;Temp;Humidity;BMP_temperature;BMP_pressure;BME280_temperature;BME280_humidity;BME280_pressure;Samples;Min_cycle;Max_cycle;Signal;HPM_P1;HPM_P2
2023/07/06 00:01:06;;;;;;;11.32;6.80;;;;;;;13.05;100.00;101365.03;5009356;28;20501;-62
2023/07/06 00:03:35;;;;;;;11.82;6.72;;;;;;;13.02;100.00;101368.72;5009392;28;20436;-62
2023/07/06 00:06:07;;;;;;;13.18;7.57;;;;;;;13.01;100.00;101368.84;5024572;28;20058;-64
2023/07/06 00:08:38;;;;;;;10.00;6.88;;;;;;;12.94;100.00;101365.75;5009600;28;20045;-63
2023/07/06 00:11:06;;;;;;;10.98;8.05;;;;;;;12.91;100.00;101359.81;5009824;28;20461;-63
2023/07/06 00:13:34;;;;;;;12.38;7.40;;;;;;;12.87;100.00;101369.75;5009829;28;20041;-62
2023/07/06 00:16:02;;;;;;;13.73;8.10;;;;;;;12.82;100.00;101367.41;5011091;28;20165;-62
2023/07/06 00:18:31;;;;;;;10.82;7.50;;;;;;;12.88;100.00;101371.44;5008664;28;20124;-62
2023/07/06 00:21:00;;;;;;;10.05;7.07;;;;;;;12.88;100.00;101366.16;5011651;28;20060;-63
2023/07/06 00:23:31;;;;;;;10.48;7.28;;;;;;;12.82;100.00;101366.56;5009152;28;20061;-63
2023/07/06 00:26:05;;;;;;;10.82;7.15;;;;;;;12.85;100.00;101366.38;5009193;28;20128;-62
2023/07/06 00:28:33;;;;;;;10.93;7.47;;;;;;;12.87;100.00;101367.13;5009328;28;20525;-62
2023/07/06 00:31:08;;;;;;;10.98;7.63;;;;;;;12.81;100.00;101378.91;5008977;28;20042;-63
2023/07/06 00:33:37;;;;;;;10.50;7.03;;;;;;;12.83;100.00;101376.19;5008654;28;20053;-62
2023/07/06 00:36:06;;;;;;;11.27;7.13;;;;;;;12.86;100.00;101381.25;5011515;28;20042;-62
2023/07/06 00:38:36;;;;;;;12.23;7.35;;;;;;;12.83;100.00;101384.94;5008762;28;20052;-62
2023/07/06 00:41:06;;;;;;;11.93;7.95;;;;;;;12.80;100.00;101376.38;5010123;28;20530;-63
2023/07/06 00:43:52;;;;;;;10.10;7.10;;;;;;;12.79;100.00;101380.81;5009497;28;20568;-63
2023/07/06 00:46:21;;;;;;;13.55;7.45;;;;;;;12.82;100.00;101379.78;5008763;28;20064;-63
2023/07/06 00:48:52;;;;;;;12.27;7.38;;;;;;;12.80;100.00;101385.16;5007280;28;20053;-62
2023/07/06 00:51:24;;;;;;;13.30;8.07;;;;;;;12.82;100.00;101385.88;5009850;28;20050;-63
2023/07/06 00:53:57;;;;;;;10.32;7.00;;;;;;;12.80;100.00;101381.66;5012150;28;20049;-63
2023/07/06 00:56:31;;;;;;;11.30;7.55;;;;;;;12.80;100.00;101379.00;5009722;28;20478;-63
2023/07/06 00:59:05;;;;;;;11.85;7.10;;;;;;;12.83;100.00;101382.31;5007698;28;20417;-64
2023/07/06 01:01:35;;;;;;;11.00;7.32;;;;;;;12.83;100.00;101386.75;5008401;28;20058;-62
2023/07/06 01:04:06;;;;;;;11.57;8.00;;;;;;;12.79;100.00;101388.75;5007925;28;20046;-62
2023/07/06 01:06:43;;;;;;;11.55;8.13;;;;;;;12.84;100.00;101377.88;5009169;28;20050;-62
2023/07/06 01:09:12;;;;;;;12.25;7.50;;;;;;;12.92;100.00;101380.84;5011257;28;20126;-62
2023/07/06 01:11:43;;;;;;;10.52;7.07;;;;;;;12.95;100.00;101379.78;5011531;28;20054;-62
2023/07/06 01:14:14;;;;;;;13.45;7.97;;;;;;;12.90;100.00;101381.88;5008306;28;20516;-62
2023/07/06 01:16:46;;;;;;;14.48;7.97;;;;;;;12.81;100.00;101378.91;5007906;28;20038;-62
2023/07/06 01:19:36;;;;;;;12.20;7.68;;;;;;;12.89;100.00;101377.56;5007544;28;20072;-64
2023/07/06 01:22:22;;;;;;;15.20;8.43;;;;;;;12.93;100.00;101374.63;5008096;28;20042;-61
2023/07/06 01:25:11;;;;;;;10.93;7.82;;;;;;;12.88;100.00;101379.34;5009065;28;20050;-62
2023/07/06 01:27:57;;;;;;;13.38;8.40;;;;;;;12.93;100.00;101379.91;5011697;28;20465;-62
2023/07/06 01:31:05;;;;;;;12.60;7.68;;;;;;;12.93;100.00;101379.91;5011473;28;20125;-62
2023/07/06 01:33:43;;;;;;;13.23;8.10;;;;;;;12.85;100.00;101380.41;5012014;28;20050;-63
2023/07/06 01:36:21;;;;;;;13.98;8.60;;;;;;;12.86;100.00;101386.53;5010401;28;20096;-65
2023/07/06 01:39:15;;;;;;;13.00;7.93;;;;;;;12.85;100.00;101384.84;5014187;28;20041;-65
2023/07/06 01:41:43;;;;;;;;;;;;;;;12.80;100.00;101387.78;5027827;28;20362;-64
2023/07/06 01:44:13;;;;;;;12.82;7.85;;;;;;;12.75;100.00;101386.38;5029254;28;19925;-64
2023/07/06 01:46:48;;;;;;;17.45;8.60;;;;;;;12.73;100.00;101385.66;5025108;28;20061;-64
2023/07/06 01:49:18;;;;;;;11.02;7.47;;;;;;;12.74;100.00;101387.34;5021362;28;20513;-64
2023/07/06 01:51:57;;;;;;;13.30;7.95;;;;;;;12.68;100.00;101388.59;5013519;28;20103;-64
2023/07/06 01:54:30;;;;;;;14.98;8.88;;;;;;;12.64;100.00;101387.94;5026564;28;20544;-65
2023/07/06 01:57:03;;;;;;;13.00;8.82;;;;;;;12.59;100.00;101379.47;5019942;28;20061;-64
2023/07/06 01:59:35;;;;;;;13.52;8.88;;;;;;;12.55;100.00;101383.25;5008592;28;20053;-62
2023/07/06 02:02:07;;;;;;;15.43;9.57;;;;;;;12.62;100.00;101383.72;5015544;28;20061;-62
2023/07/06 02:04:43;;;;;;;13.98;8.52;;;;;;;12.57;100.00;101389.31;5031472;28;20128;-63
2023/07/06 02:07:13;;;;;;;13.63;8.68;;;;;;;12.58;100.00;101390.97;5024587;28;20054;-63
2023/07/06 02:09:44;;;;;;;14.18;9.75;;;;;;;12.57;100.00;101389.31;5011534;28;20042;-65
2023/07/06 02:12:13;;;;;;;14.27;9.07;;;;;;;12.56;100.00;101390.25;5023989;28;20050;-64
2023/07/06 02:14:42;;;;;;;14.05;8.63;;;;;;;12.53;100.00;101385.16;5010153;28;20054;-64
2023/07/06 02:17:11;;;;;;;16.58;10.25;;;;;;;12.53;100.00;101385.16;5015376;28;20435;-64
2023/07/06 02:19:41;;;;;;;15.20;8.93;;;;;;;12.61;100.00;101388.16;5029440;28;20080;-64
2023/07/06 02:22:10;;;;;;;12.02;8.35;;;;;;;12.58;100.00;101384.88;5029293;28;20042;-64
2023/07/06 02:24:39;;;;;;;14.45;9.40;;;;;;;12.54;100.00;101386.00;5030428;28;20463;-64
2023/07/06 02:27:09;;;;;;;16.77;10.38;;;;;;;12.56;100.00;101390.25;5026991;28;20045;-64
2023/07/06 02:29:39;;;;;;;16.92;9.70;;;;;;;12.57;100.00;101391.06;5011152;28;20046;-65
2023/07/06 02:32:09;;;;;;;14.52;10.18;;;;;;;12.57;100.00;101381.38;5012900;28;20049;-64
2023/07/06 02:34:37;;;;;;;16.88;10.20;;;;;;;12.57;100.00;101381.38;5031072;28;20033;-65
2023/07/06 02:37:08;;;;;;;16.17;9.95;;;;;;;12.55;100.00;101383.25;5027914;28;20069;-65
2023/07/06 02:39:36;;;;;;;14.13;9.38;;;;;;;12.60;100.00;101385.63;5013058;28;20050;-65
2023/07/06 02:42:04;;;;;;;18.38;10.50;;;;;;;12.62;100.00;101378.44;4995780;28;20046;-65
2023/07/06 02:44:32;;;;;;;15.13;9.38;;;;;;;12.61;100.00;101382.88;5029033;28;20044;-65
2023/07/06 02:47:01;;;;;;;15.75;9.38;;;;;;;12.60;100.00;101381.19;5029580;28;20224;-65
2023/07/06 02:49:29;;;;;;;19.13;9.15;;;;;;;12.62;100.00;101391.63;5023145;28;20088;-65
2023/07/06 02:51:57;;;;;;;15.27;9.18;;;;;;;12.61;100.00;101385.53;5010945;28;20622;-65
2023/07/06 02:54:26;;;;;;;15.65;9.45;;;;;;;12.60;100.00;101388.25;5009857;28;20037;-65
2023/07/06 02:56:56;;;;;;;18.42;9.70;;;;;;;12.54;100.00;101384.19;5010766;28;20104;-65
2023/07/06 02:59:24;;;;;;;15.63;9.30;;;;;;;12.55;100.00;101387.72;5010435;28;20076;-65
2023/07/06 03:01:52;;;;;;;13.85;9.15;;;;;;;12.56;100.00;101387.59;5009969;28;20069;-65
2023/07/06 03:04:23;;;;;;;15.93;9.20;;;;;;;12.50;100.00;101378.31;5010007;28;20050;-65
2023/07/06 03:06:51;;;;;;;14.50;9.45;;;;;;;12.53;100.00;101379.91;5010871;28;20513;-65
2023/07/06 03:09:19;;;;;;;13.40;7.95;;;;;;;12.52;100.00;101386.94;5010288;28;20516;-64
2023/07/06 03:11:49;;;;;;;13.07;8.65;;;;;;;12.57;100.00;101391.94;5010254;28;20066;-64
2023/07/06 03:14:17;;;;;;;14.48;8.63;;;;;;;12.64;100.00;101393.22;5010024;28;20045;-64
2023/07/06 03:16:46;;;;;;;11.98;7.68;;;;;;;12.64;100.00;101392.41;5009737;28;20560;-65
2023/07/06 03:19:14;;;;;;;14.93;7.55;;;;;;;12.66;100.00;101395.75;5007944;28;20058;-65
2023/07/06 03:21:46;;;;;;;13.43;7.72;;;;;;;12.67;100.00;101393.03;5010760;28;20137;-64
2023/07/06 03:24:15;;;;;;;16.33;7.70;;;;;;;12.70;100.00;101397.25;5008839;28;20060;-65
2023/07/06 03:26:44;;;;;;;11.35;7.35;;;;;;;12.68;100.00;101399.16;5010479;28;20045;-64
2023/07/06 03:29:14;;;;;;;11.43;6.80;;;;;;;12.71;100.00;101404.22;5010029;28;20094;-64
2023/07/06 03:31:42;;;;;;;11.93;6.40;;;;;;;12.63;100.00;101399.44;5009773;28;20403;-65
2023/07/06 03:34:11;;;;;;;14.05;6.80;;;;;;;12.61;100.00;101409.25;5009730;28;20038;-65
2023/07/06 03:36:39;;;;;;;13.18;6.53;;;;;;;12.64;100.00;101413.50;5010634;28;20050;-65
2023/07/06 03:39:12;;;;;;;12.05;6.40;;;;;;;12.67;100.00;101415.94;5009663;28;20069;-65
2023/07/06 03:41:40;;;;;;;13.50;6.53;;;;;;;12.66;100.00;101416.88;5010484;28;20042;-65
2023/07/06 03:44:09;;;;;;;13.07;6.85;;;;;;;12.67;100.00;101403.56;5009795;28;20041;-65
2023/07/06 03:46:39;;;;;;;13.73;6.63;;;;;;;12.71;100.00;101406.00;5007907;28;20068;-65
2023/07/06 03:49:10;;;;;;;13.23;6.72;;;;;;;12.71;100.00;101403.38;5009700;28;20104;-65
2023/07/06 03:51:39;;;;;;;12.63;6.53;;;;;;;12.67;100.00;101406.22;5010480;28;20133;-65
2023/07/06 03:54:07;;;;;;;13.35;6.70;;;;;;;12.69;100.00;101414.03;5008795;28;20485;-65
2023/07/06 03:56:36;;;;;;;12.38;6.13;;;;;;;12.75;100.00;101415.41;5009859;28;20104;-65
2023/07/06 03:59:05;;;;;;;12.93;6.95;;;;;;;12.68;100.00;101413.19;5008803;28;20124;-66
2023/07/06 04:01:36;;;;;;;11.70;6.20;;;;;;;12.73;100.00;101412.03;5009237;28;20132;-65
2023/07/06 04:04:08;;;;;;;14.82;6.28;;;;;;;12.76;100.00;101410.06;5008900;28;20045;-64
2023/07/06 04:06:40;;;;;;;9.32;5.90;;;;;;;12.76;100.00;101417.13;5010157;28;20065;-67
2023/07/06 04:09:10;;;;;;;13.95;6.63;;;;;;;12.76;100.00;101417.13;5009560;28;20058;-64
2023/07/06 04:11:38;;;;;;;11.70;6.30;;;;;;;12.71;100.00;101421.84;5009898;28;20051;-66
2023/07/06 04:14:06;;;;;;;10.95;5.70;;;;;;;12.77;100.00;101418.81;5008813;28;20080;-64
2023/07/06 04:16:35;;;;;;;12.18;5.72;;;;;;;12.81;100.00;101417.66;5009078;28;20046;-64
2023/07/06 04:19:03;;;;;;;15.00;6.72;;;;;;;12.79;100.00;101412.50;5008357;28;20045;-66
2023/07/06 04:21:33;;;;;;;12.70;6.13;;;;;;;12.77;100.00;101418.81;5008521;28;20049;-64
2023/07/06 04:24:03;;;;;;;13.73;6.53;;;;;;;12.74;100.00;101419.03;5007495;28;20144;-64
2023/07/06 04:26:32;;;;;;;16.15;6.22;;;;;;;12.75;100.00;101418.91;5009622;28;20849;-64
2023/07/06 04:29:02;;;;;;;12.45;6.40;;;;;;;12.79;100.00;101423.06;5008775;28;20053;-65
2023/07/06 04:31:30;;;;;;;15.98;7.03;;;;;;;12.73;100.00;101422.59;5008985;28;20038;-64
2023/07/06 04:33:58;;;;;;;19.15;6.47;;;;;;;12.80;100.00;101432.66;5008407;28;20116;-65
2023/07/06 04:36:28;;;;;;;15.45;6.50;;;;;;;12.80;100.00;101430.03;5009693;28;20061;-65
2023/07/06 04:38:58;;;;;;;13.55;6.32;;;;;;;12.81;100.00;101434.34;5006845;28;20084;-64
2023/07/06 04:41:27;;;;;;;15.32;6.45;;;;;;;12.85;100.00;101432.34;5009339;28;20103;-65
2023/07/06 04:43:56;;;;;;;13.32;5.85;;;;;;;12.89;100.00;101433.00;5008199;28;20508;-65
2023/07/06 04:46:24;;;;;;;11.35;5.80;;;;;;;12.92;100.00;101440.72;5008292;28;20132;-65
2023/07/06 04:48:53;;;;;;;12.65;5.95;;;;;;;12.91;100.00;101439.03;5007865;28;20467;-66
2023/07/06 04:51:22;;;;;;;10.25;5.70;;;;;;;12.91;100.00;101449.59;5009153;28;20785;-65
2023/07/06 04:53:50;;;;;;;16.33;6.55;;;;;;;12.98;100.00;101443.81;5006806;28;20099;-65
2023/07/06 04:56:21;;;;;;;16.50;6.57;;;;;;;12.94;100.00;101452.00;5011589;28;20056;-65
2023/07/06 04:58:50;;;;;;;17.45;6.75;;;;;;;12.98;100.00;101449.09;5012330;28;20773;-65
2023/07/06 05:01:19;;;;;;;13.75;5.82;;;;;;;13.04;100.00;101452.28;5010804;28;20046;-65
2023/07/06 05:03:48;;;;;;;12.32;5.82;;;;;;;13.09;100.00;101453.66;5007926;28;20046;-63
2023/07/06 05:06:16;;;;;;;11.15;5.80;;;;;;;13.15;100.00;101447.13;5009337;28;20042;-63
2023/07/06 05:08:44;;;;;;;13.95;5.88;;;;;;;13.17;100.00;101459.28;5007974;28;20077;-63
2023/07/06 05:11:13;;;;;;;17.02;5.90;;;;;;;13.18;100.00;101454.84;5008753;28;20508;-63
2023/07/06 05:13:43;;;;;;;12.05;5.57;;;;;;;13.24;100.00;101454.44;5007662;28;20050;-63
2023/07/06 05:16:11;;;;;;;16.55;6.38;;;;;;;13.25;100.00;101455.28;5008869;28;20038;-62
2023/07/06 05:18:39;;;;;;;17.67;6.15;;;;;;;13.28;100.00;101453.28;5007908;28;20580;-62
2023/07/06 05:21:10;;;;;;;16.17;6.35;;;;;;;13.27;100.00;101448.09;5008585;28;20053;-63
2023/07/06 05:23:38;;;;;;;13.80;6.35;;;;;;;13.33;100.00;101453.81;5023062;28;20065;-62
2023/07/06 05:26:07;;;;;;;14.68;5.82;;;;;;;13.33;100.00;101456.47;5010416;28;20045;-62
2023/07/06 05:28:35;;;;;;;14.13;6.35;;;;;;;13.35;100.00;101461.66;5008121;28;20384;-62
2023/07/06 05:31:05;;;;;;;12.75;6.30;;;;;;;13.42;100.00;101459.47;5023477;28;20058;-62
2023/07/06 05:33:33;;;;;;;16.15;6.60;;;;;;;13.48;100.00;101457.28;5010289;28;20114;-63
2023/07/06 05:36:01;;;;;;;16.13;7.00;;;;;;;13.48;100.00;101456.41;5015925;28;20108;-63
2023/07/06 05:38:29;;;;;;;12.98;6.25;;;;;;;13.51;100.00;101457.06;5015741;28;20054;-63
2023/07/06 05:41:02;;;;;;;17.10;7.63;;;;;;;13.59;100.00;101471.53;5029650;28;20800;-63
2023/07/06 05:43:31;;;;;;;17.20;6.53;;;;;;;13.61;100.00;101467.00;5011035;28;20141;-63
2023/07/06 05:45:59;;;;;;;18.17;6.60;;;;;;;13.72;100.00;101469.75;5011560;28;20045;-62
2023/07/06 05:48:30;;;;;;;16.08;7.25;;;;;;;13.75;100.00;101472.16;5011379;28;20137;-63
2023/07/06 05:50:58;;;;;;;18.95;7.43;;;;;;;13.74;100.00;101473.13;5012390;28;20547;-62
2023/07/06 05:53:27;;;;;;;17.80;7.40;;;;;;;13.82;100.00;101472.59;5011489;28;20057;-63
2023/07/06 05:55:55;;;;;;;14.48;7.25;;;;;;;13.96;100.00;101466.34;5011999;28;20060;-62
2023/07/06 05:58:24;;;;;;;22.08;7.82;;;;;;;14.08;100.00;101477.88;5012322;28;20052;-63
2023/07/06 06:00:53;;;;;;;15.02;8.55;;;;;;;14.11;100.00;101483.81;5015248;28;20054;-62
2023/07/06 06:03:21;;;;;;;19.55;9.00;;;;;;;14.19;100.00;101488.53;5013591;28;20048;-63
2023/07/06 06:05:52;;;;;;;23.25;8.98;;;;;;;14.11;100.00;101483.81;5011526;28;20042;-62
2023/07/06 06:08:21;;;;;;;18.95;10.02;;;;;;;14.15;100.00;101487.06;5012601;28;20092;-63
2023/07/06 06:10:52;;;;;;;21.98;9.73;;;;;;;14.14;100.00;101488.03;5012668;28;20390;-63
2023/07/06 06:13:20;;;;;;;19.13;10.60;;;;;;;14.25;100.00;101482.84;5011412;28;20053;-62
2023/07/06 06:15:49;;;;;;;25.67;10.80;;;;;;;14.31;100.00;101489.50;5011384;28;20125;-62
2023/07/06 06:18:17;;;;;;;20.83;10.80;;;;;;;14.32;100.00;101494.66;5014121;28;20192;-62
2023/07/06 06:20:45;;;;;;;21.20;11.70;;;;;;;14.31;100.00;101492.97;5011341;28;20592;-63
2023/07/06 06:23:16;;;;;;;27.55;12.38;;;;;;;14.34;100.00;101497.19;5011167;28;20092;-62
2023/07/06 06:25:45;;;;;;;22.75;11.93;;;;;;;14.47;100.00;101491.91;5011341;28;20552;-62
2023/07/06 06:28:14;;;;;;;25.17;11.30;;;;;;;14.55;100.00;101500.13;5010747;28;20056;-62
2023/07/06 06:30:42;;;;;;;21.33;10.25;;;;;;;14.70;100.00;101500.88;5011947;28;20176;-61
2023/07/06 06:33:10;;;;;;;23.33;10.88;;;;;;;14.65;100.00;101501.19;5010165;28;20080;-61
2023/07/06 06:35:39;;;;;;;24.55;11.88;;;;;;;14.68;100.00;101500.13;5012421;28;20045;-63
2023/07/06 06:38:07;;;;;;;23.67;11.35;;;;;;;14.77;100.00;101501.28;5011837;28;20137;-61
2023/07/06 06:40:36;;;;;;;19.27;11.38;;;;;;;14.92;100.00;101507.25;5011139;28;20057;-61
2023/07/06 06:43:08;;;;;;;24.13;12.00;;;;;;;15.07;100.00;101521.19;5014156;28;20057;-62
2023/07/06 06:45:36;;;;;;;23.05;11.07;;;;;;;15.19;100.00;101522.91;5013529;28;20050;-60
2023/07/06 06:48:05;;;;;;;22.70;11.73;;;;;;;15.32;100.00;101526.31;5014318;28;20128;-61
2023/07/06 06:50:33;;;;;;;24.52;11.80;;;;;;;15.29;100.00;101529.22;5017444;28;20037;-65
2023/07/06 06:53:02;;;;;;;20.10;11.05;;;;;;;15.43;100.00;101536.13;5029353;28;20053;-65
2023/07/06 06:55:33;;;;;;;21.08;11.60;;;;;;;15.56;100.00;101541.38;5030686;28;20544;-66
2023/07/06 06:58:03;;;;;;;21.73;11.35;;;;;;;15.70;100.00;101537.66;5029653;28;20041;-64
2023/07/06 07:00:32;;;;;;;21.50;11.57;;;;;;;15.70;100.00;101550.91;5030536;28;20128;-62
2023/07/06 07:03:00;;;;;;;21.00;12.70;;;;;;;15.76;100.00;101542.50;5027339;28;20049;-67
2023/07/06 07:05:29;;;;;;;26.00;14.00;;;;;;;15.83;100.00;101545.56;5030266;28;20037;-65
2023/07/06 07:07:57;;;;;;;23.27;13.18;;;;;;;15.91;100.00;101552.94;5028988;28;20497;-63
2023/07/06 07:10:25;;;;;;;25.88;13.30;;;;;;;15.82;100.00;101554.50;5030432;28;20073;-66
2023/07/06 07:12:57;;;;;;;23.55;13.95;;;;;;;15.78;100.00;101558.31;5018180;28;20074;-65
2023/07/06 07:15:26;;;;;;;22.05;13.23;;;;;;;15.94;100.00;101561.50;5011937;28;20042;-65
2023/07/06 07:17:55;;;;;;;23.02;13.68;;;;;;;16.10;100.00;101560.31;5017919;28;20056;-66
2023/07/06 07:20:23;;;;;;;24.23;12.80;;;;;;;16.15;100.00;101551.03;5020485;28;20116;-67
2023/07/06 07:22:53;;;;;;;21.70;12.73;;;;;;;16.29;100.00;101563.25;5013071;28;20494;-67
2023/07/06 07:25:21;;;;;;;23.95;13.68;;;;;;;16.40;100.00;101559.72;5013169;28;20042;-66
2023/07/06 07:27:49;;;;;;;16.85;12.50;;;;;;;16.55;100.00;101552.34;5013198;28;20053;-65
2023/07/06 07:30:18;;;;;;;24.83;13.25;;;;;;;16.64;100.00;101566.72;5013082;28;20054;-66
2023/07/06 07:32:49;;;;;;;20.83;14.20;;;;;;;16.79;100.00;101567.31;5013123;28;20128;-64
2023/07/06 07:35:18;;;;;;;22.90;14.35;;;;;;;16.87;100.00;101573.69;5016695;28;20060;-64
2023/07/06 07:37:50;;;;;;;19.90;13.38;;;;;;;17.11;100.00;101574.53;5011527;28;20086;-65
2023/07/06 07:40:20;;;;;;;20.85;14.10;;;;;;;17.12;100.00;101574.38;5009406;28;20049;-64
2023/07/06 07:42:49;;;;;;;17.85;13.00;;;;;;;17.23;100.00;101581.50;5009004;28;20489;-64
2023/07/06 07:45:18;;;;;;;21.45;12.18;;;;;;;17.27;100.00;101579.44;5009923;28;20045;-67
2023/07/06 07:47:51;;;;;;;19.60;13.10;;;;;;;17.38;100.00;101572.28;5008711;28;20073;-65
2023/07/06 07:50:24;;;;;;;;;;;;;;;17.49;100.00;101584.69;5012163;28;20540;-65
2023/07/06 07:52:53;;;;;;;22.63;12.48;;;;;;;17.42;100.00;101582.66;5011551;28;19925;-66
2023/07/06 07:55:21;;;;;;;19.83;12.63;;;;;;;17.44;100.00;101591.31;5019641;28;20034;-64
2023/07/06 07:57:53;;;;;;;25.73;12.95;;;;;;;17.29;100.00;101590.78;5022011;28;20048;-63
2023/07/06 08:00:21;;;;;;;21.45;13.10;;;;;;;17.51;100.00;101596.00;5024746;28;20044;-63
2023/07/06 08:02:52;;;;;;;24.02;12.77;;;;;;;17.62;100.00;101589.81;5010724;28;20049;-63
2023/07/06 08:05:21;;;;;;;21.52;12.55;;;;;;;17.66;100.00;101596.56;5013349;28;20528;-64
2023/07/06 08:07:50;;;;;;;20.63;12.35;;;;;;;17.79;100.00;101592.88;5013353;28;20034;-64
2023/07/06 08:10:18;;;;;;;18.73;12.15;;;;;;;17.83;100.00;101599.63;5019505;28;20132;-64
2023/07/06 08:12:46;;;;;;;20.13;12.55;;;;;;;17.83;100.00;101604.94;5020109;28;20042;-62
2023/07/06 08:15:14;;;;;;;20.80;12.13;;;;;;;17.64;100.00;101603.84;5019322;28;20084;-63
2023/07/06 08:17:45;;;;;;;19.90;12.32;;;;;;;17.55;100.00;101607.25;5027925;28;20048;-64
2023/07/06 08:20:17;;;;;;;21.77;12.50;;;;;;;17.86;100.00;101602.00;5028852;28;20054;-62
2023/07/06 08:23:07;;;;;;;21.02;11.35;;;;;;;18.15;100.00;101609.41;5026936;28;20050;-63
2023/07/06 08:25:37;;;;;;;25.20;11.65;;;;;;;18.46;100.00;101607.59;5022210;28;20044;-64
2023/07/06 08:28:06;;;;;;;18.67;10.95;;;;;;;18.54;100.00;101610.44;5014141;28;20107;-63
2023/07/06 08:30:35;;;;;;;20.85;11.70;;;;;;;18.53;100.00;101607.91;5009998;28;20370;-65
2023/07/06 08:33:06;;;;;;;20.02;11.77;;;;;;;18.69;100.00;101615.38;5021409;28;20053;-64
2023/07/06 08:35:35;;;;;;;17.38;10.77;;;;;;;18.95;100.00;101625.59;5027266;28;20041;-65
2023/07/06 08:38:04;;;;;;;22.65;10.85;;;;;;;19.05;100.00;101616.66;5022967;28;20033;-62
2023/07/06 08:40:34;;;;;;;18.63;11.35;;;;;;;19.03;100.00;101615.97;5021915;28;20037;-64
2023/07/06 08:43:05;;;;;;;17.85;10.50;;;;;;;19.20;100.00;101625.09;5015657;28;20450;-63
2023/07/06 08:45:40;;;;;;;19.40;10.65;;;;;;;19.03;100.00;101625.75;5026971;28;20047;-63
2023/07/06 08:48:13;;;;;;;16.47;9.20;;;;;;;19.38;100.00;101622.59;5024572;28;20041;-63
2023/07/06 08:50:48;;;;;;;18.17;10.48;;;;;;;19.53;100.00;101622.19;5022980;28;20048;-63
2023/07/06 08:53:17;;;;;;;16.05;9.75;;;;;;;19.76;100.00;101633.44;5015104;28;20497;-63
2023/07/06 08:55:46;;;;;;;16.55;9.75;;;;;;;19.87;100.00;101632.47;5013317;28;20041;-64
2023/07/06 08:58:22;;;;;;;15.10;9.82;;;;;;;19.81;100.00;101628.56;5018615;28;20049;-62
2023/07/06 09:00:50;;;;;;;17.38;8.82;;;;;;;19.80;100.00;101631.34;5004989;28;20497;-64
2023/07/06 09:03:18;;;;;;;16.13;8.93;;;;;;;20.08;100.00;101635.81;5007726;28;20070;-64
2023/07/06 09:05:54;;;;;;;14.20;8.77;;;;;;;19.95;100.00;101640.59;5014132;28;20100;-65
2023/07/06 09:08:23;;;;;;;14.40;8.30;;;;;;;19.91;100.00;101639.22;4997190;28;20050;-63
2023/07/06 09:10:51;;;;;;;20.83;9.02;;;;;;;19.52;100.00;101644.50;5014619;28;20489;-55
2023/07/06 09:13:24;;;;;;;19.85;9.82;;;;;;;20.02;100.00;101644.38;5026570;28;20056;-61
2023/07/06 09:15:56;;;;;;;;;;;;;;;20.34;100.00;101640.53;5017826;28;20041;-60
2023/07/06 09:18:25;;;;;;;15.00;8.50;;;;;;;20.40;100.00;101647.97;5009509;28;19925;-62
2023/07/06 09:20:54;;;;;;;13.10;7.78;;;;;;;20.70;100.00;101645.22;5008611;28;20068;-68
2023/07/06 09:23:24;;;;;;;13.38;7.78;;;;;;;20.85;100.00;101648.25;5011876;28;20433;-66
2023/07/06 09:25:56;;;;;;;14.25;7.38;;;;;;;20.64;100.00;101648.44;5010646;28;20129;-66
2023/07/06 09:28:29;;;;;;;16.77;8.98;;;;;;;20.51;100.00;101648.78;5008070;28;20050;-64
2023/07/06 09:31:08;;;;;;;13.02;8.10;;;;;;;20.63;100.00;101639.59;5008545;28;20053;-60
2023/07/06 09:33:44;;;;;;;14.25;8.80;;;;;;;20.80;100.00;101648.69;5007994;28;20108;-62
2023/07/06 09:36:19;;;;;;;13.48;7.57;;;;;;;20.93;100.00;101649.19;5023486;28;20048;-58
2023/07/06 09:38:47;;;;;;;14.50;7.97;;;;;;;21.33;100.00;101643.63;4988220;28;20080;-58
2023/07/06 09:41:20;;;;;;;15.02;8.23;;;;;;;21.56;100.00;101652.91;5004071;28;20411;-58
2023/07/06 09:43:53;;;;;;;14.27;8.45;;;;;;;21.72;100.00;101646.84;5030297;28;20124;-59
2023/07/06 09:46:23;;;;;;;15.18;7.93;;;;;;;21.75;100.00;101643.03;5027244;28;20046;-59
2023/07/06 09:48:52;;;;;;;12.48;7.65;;;;;;;22.00;100.00;101652.09;5018539;28;20116;-60
2023/07/06 09:51:26;;;;;;;12.30;7.68;;;;;;;22.31;100.00;101648.97;5008316;28;20042;-60
2023/07/06 09:53:58;;;;;;;13.02;8.15;;;;;;;22.34;100.00;101645.13;5007297;28;20048;-59
2023/07/06 09:56:28;;;;;;;12.32;6.68;;;;;;;22.79;100.00;101647.56;5001540;28;20493;-59
2023/07/06 09:58:56;;;;;;;14.27;6.90;;;;;;;22.55;100.00;101650.13;5012665;28;20069;-59
2023/07/06 10:01:38;;;;;;;11.40;6.22;;;;;;;23.19;100.00;101647.91;5022049;28;20085;-60
2023/07/06 10:04:33;;;;;;;11.65;6.10;;;;;;;23.27;100.00;101652.44;5012714;28;20137;-60
2023/07/06 10:07:07;;;;;;;;;;;;;;;23.16;100.00;101644.72;5010192;28;20128;-61
2023/07/06 10:09:40;;;;;;;15.25;7.07;;;;;;;23.13;100.00;101645.88;5016990;28;19921;-60
2023/07/06 10:12:17;;;;;;;13.82;6.90;;;;;;;23.13;100.00;101645.88;5018406;28;20059;-60
2023/07/06 10:14:49;;;;;;;15.80;7.15;;;;;;;23.43;100.00;101644.41;5012838;28;20065;-60
2023/07/06 10:17:35;;;;;;;15.02;7.68;;;;;;;22.92;100.00;101643.63;5008988;28;20451;-59
2023/07/06 10:20:12;;;;;;;14.65;8.07;;;;;;;22.93;100.00;101640.75;5018409;28;20058;-60
2023/07/06 10:23:05;;;;;;;23.40;8.05;;;;;;;23.18;100.00;101638.19;5023738;28;20034;-60
2023/07/06 10:25:37;;;;;;;16.60;7.70;;;;;;;23.66;100.00;101635.72;5020238;28;20393;-55
2023/07/06 10:28:11;;;;;;;15.13;7.68;;;;;;;23.38;100.00;101632.50;5014579;28;20509;-59
2023/07/06 10:30:45;;;;;;;14.60;6.90;;;;;;;23.73;100.00;101622.47;5021869;28;20046;-58
2023/07/06 10:33:19;;;;;;;13.98;7.57;;;;;;;23.65;100.00;101625.97;5016648;28;20129;-57
2023/07/06 10:35:50;;;;;;;12.98;7.45;;;;;;;23.00;100.00;101621.31;5026169;28;20045;-57
2023/07/06 10:38:20;;;;;;;12.40;7.18;;;;;;;23.29;100.00;101620.94;5018563;28;20044;-55
2023/07/06 10:40:51;;;;;;;12.68;6.97;;;;;;;23.37;100.00;101618.25;5015601;28;20054;-53
2023/07/06 10:43:23;;;;;;;13.75;6.18;;;;;;;23.13;100.00;101614.50;5011661;28;20042;-54
2023/07/06 10:45:52;;;;;;;13.85;6.55;;;;;;;23.20;100.00;101619.22;5017218;28;20049;-54
2023/07/06 10:48:30;;;;;;;10.88;5.82;;;;;;;23.77;100.00;101626.50;5010963;28;20137;-54
2023/07/06 10:51:20;;;;;;;11.82;5.85;;;;;;;24.28;100.00;101628.97;5011271;28;20053;-63
2023/07/06 10:54:08;;;;;;;9.65;4.45;;;;;;;24.61;100.00;101634.25;5010523;28;20049;-63
2023/07/06 10:56:41;;;;;;;11.85;5.10;;;;;;;24.63;100.00;101616.94;5018478;28;20516;-66
2023/07/06 10:59:17;;;;;;;11.25;4.45;;;;;;;24.42;100.00;101628.28;5017943;28;20060;-65
2023/07/06 11:01:49;;;;;;;12.32;5.10;;;;;;;24.47;100.00;101630.44;5015053;28;20045;-71
2023/07/06 11:04:45;;;;;;;11.35;4.95;;;;;;;24.43;100.00;101638.00;5019658;28;20034;-70
2023/07/06 11:07:39;;;;;;;13.10;4.20;;;;;;;24.53;100.00;101632.44;5018983;28;20099;-67
2023/07/06 11:10:24;;;;;;;9.20;3.97;;;;;;;24.59;100.00;101637.09;5024931;28;20439;-67
2023/07/06 11:12:54;;;;;;;12.43;4.30;;;;;;;24.32;100.00;101637.53;5028747;28;20466;-68
2023/07/06 11:15:26;;;;;;;8.63;3.55;;;;;;;24.39;98.49;101636.69;5019780;28;20149;-66
2023/07/06 11:17:57;;;;;;;6.90;3.60;;;;;;;24.27;95.76;101632.69;5008956;28;20251;-64
2023/07/06 11:20:28;;;;;;;9.00;3.53;;;;;;;24.38;100.00;101634.16;5030490;28;20073;-67
2023/07/06 11:23:02;;;;;;;9.40;3.92;;;;;;;24.93;100.00;101633.28;5027636;28;20099;-67
2023/07/06 11:25:32;;;;;;;9.88;3.90;;;;;;;24.90;96.57;101638.22;5022379;28;20046;-66
2023/07/06 11:28:05;;;;;;;9.82;4.00;;;;;;;25.19;89.37;101623.25;5009446;28;20358;-67